sensor_id;sensor_type;location;lat;lon;timestamp;temperature;humidity
38131;DHT22;23947;51.894;4.622;2022-12-18T00:01:58;-1.60;1.00
38131;DHT22;23947;51.894;4.622;2022-12-18T00:04:25;-1.60;1.00
38131;DHT22;23947;51.894;4.622;2022-12-18T00:06:52;-1.60;1.00
38131;DHT22;23947;51.894;4.622;2022-12-18T00:09:18;-1.60;1.00
38131;DHT22;23947;51.894;4.622;2022-12-18T00:11:43;-1.60;1.00
38131;DHT22;23947;51.894;4.622;2022-12-18T00:14:11;-1.70;1.00
38131;DHT22;23947;51.894;4.622;2022-12-18T00:16:38;-1.70;1.00
38131;DHT22;23947;51.894;4.622;2022-12-18T00:19:05;-1.70;1.00
38131;DHT22;23947;51.894;4.622;2022-12-18T00:21:32;-1.70;1.00
38131;DHT22;23947;51.894;4.622;2022-12-18T00:23:58;-1.70;1.00
38131;DHT22;23947;51.894;4.622;2022-12-18T00:26:29;-1.70;1.00
38131;DHT22;23947;51.894;4.622;2022-12-18T00:29:04;-1.70;1.00
38131;DHT22;23947;51.894;4.622;2022-12-18T00:31:30;-1.70;1.00
38131;DHT22;23947;51.894;4.622;2022-12-18T00:33:58;-1.80;1.00
38131;DHT22;23947;51.894;4.622;2022-12-18T00:36:29;-1.80;1.00
38131;DHT22;23947;51.894;4.622;2022-12-18T00:38:56;-1.80;1.00
38131;DHT22;23947;51.894;4.622;2022-12-18T00:41:22;-1.80;1.00
38131;DHT22;23947;51.894;4.622;2022-12-18T00:44:11;-1.80;1.00
38131;DHT22;23947;51.894;4.622;2022-12-18T00:46:38;-1.80;1.00
38131;DHT22;23947;51.894;4.622;2022-12-18T00:49:03;-1.80;1.00
38131;DHT22;23947;51.894;4.622;2022-12-18T00:51:29;-1.80;1.00
38131;DHT22;23947;51.894;4.622;2022-12-18T00:53:55;-1.90;1.00
38131;DHT22;23947;51.894;4.622;2022-12-18T00:56:21;-1.90;1.00
38131;DHT22;23947;51.894;4.622;2022-12-18T00:58:47;-1.90;1.00
38131;DHT22;23947;51.894;4.622;2022-12-18T01:01:13;-1.90;1.00
38131;DHT22;23947;51.894;4.622;2022-12-18T01:03:39;-2.00;1.00
38131;DHT22;23947;51.894;4.622;2022-12-18T01:06:10;-1.90;1.00
38131;DHT22;23947;51.894;4.622;2022-12-18T01:08:38;-2.00;1.00
38131;DHT22;23947;51.894;4.622;2022-12-18T01:11:12;-2.00;1.00
38131;DHT22;23947;51.894;4.622;2022-12-18T01:13:39;-1.90;1.00
38131;DHT22;23947;51.894;4.622;2022-12-18T01:16:05;-2.00;1.00
38131;DHT22;23947;51.894;4.622;2022-12-18T01:18:31;-2.00;1.00
38131;DHT22;23947;51.894;4.622;2022-12-18T01:20:57;-2.00;1.00
38131;DHT22;23947;51.894;4.622;2022-12-18T01:23:23;-2.00;1.00
38131;DHT22;23947;51.894;4.622;2022-12-18T01:25:48;-2.00;1.00
38131;DHT22;23947;51.894;4.622;2022-12-18T01:28:14;-2.10;1.00
38131;DHT22;23947;51.894;4.622;2022-12-18T01:30:40;-2.10;1.00
38131;DHT22;23947;51.894;4.622;2022-12-18T01:33:08;-2.10;1.00
38131;DHT22;23947;51.894;4.622;2022-12-18T01:35:40;-2.10;1.00
38131;DHT22;23947;51.894;4.622;2022-12-18T01:38:06;-2.10;1.00
38131;DHT22;23947;51.894;4.622;2022-12-18T01:40:32;-2.10;1.00
38131;DHT22;23947;51.894;4.622;2022-12-18T01:43:01;-2.10;1.00
38131;DHT22;23947;51.894;4.622;2022-12-18T01:45:29;-2.20;1.00
38131;DHT22;23947;51.894;4.622;2022-12-18T01:48:01;-2.10;1.00
38131;DHT22;23947;51.894;4.622;2022-12-18T01:50:36;-2.10;1.00
38131;DHT22;23947;51.894;4.622;2022-12-18T01:53:11;-2.10;1.00
38131;DHT22;23947;51.894;4.622;2022-12-18T01:55:53;-2.10;1.00
38131;DHT22;23947;51.894;4.622;2022-12-18T01:58:21;-2.20;1.00
38131;DHT22;23947;51.894;4.622;2022-12-18T02:00:51;-2.20;1.00
38131;DHT22;23947;51.894;4.622;2022-12-18T02:03:16;-2.20;1.00
38131;DHT22;23947;51.894;4.622;2022-12-18T02:19:00;-2.30;1.00
38131;DHT22;23947;51.894;4.622;2022-12-18T02:21:51;-2.40;1.00
38131;DHT22;23947;51.894;4.622;2022-12-18T02:24:46;-2.40;1.00
38131;DHT22;23947;51.894;4.622;2022-12-18T02:27:14;-2.40;1.00
38131;DHT22;23947;51.894;4.622;2022-12-18T02:29:48;-2.50;1.00
38131;DHT22;23947;51.894;4.622;2022-12-18T02:32:22;-2.60;1.00
38131;DHT22;23947;51.894;4.622;2022-12-18T02:34:55;-2.60;1.00
38131;DHT22;23947;51.894;4.622;2022-12-18T02:37:23;-2.60;1.00
38131;DHT22;23947;51.894;4.622;2022-12-18T02:39:53;-2.60;1.00
38131;DHT22;23947;51.894;4.622;2022-12-18T02:42:27;-2.60;1.00
38131;DHT22;23947;51.894;4.622;2022-12-18T02:44:54;-2.70;1.00
38131;DHT22;23947;51.894;4.622;2022-12-18T02:47:26;-2.80;1.00
38131;DHT22;23947;51.894;4.622;2022-12-18T02:53:01;-2.80;1.00
38131;DHT22;23947;51.894;4.622;2022-12-18T02:58:13;-2.80;1.00
38131;DHT22;23947;51.894;4.622;2022-12-18T03:00:55;-2.80;1.00
38131;DHT22;23947;51.894;4.622;2022-12-18T03:06:33;-2.70;1.00
38131;DHT22;23947;51.894;4.622;2022-12-18T03:09:14;-2.80;1.00
38131;DHT22;23947;51.894;4.622;2022-12-18T03:11:43;-2.80;1.00
38131;DHT22;23947;51.894;4.622;2022-12-18T03:14:31;-2.90;1.00
38131;DHT22;23947;51.894;4.622;2022-12-18T03:17:02;-2.90;1.00
38131;DHT22;23947;51.894;4.622;2022-12-18T03:19:28;-3.00;1.00
38131;DHT22;23947;51.894;4.622;2022-12-18T03:21:57;-2.90;1.00
38131;DHT22;23947;51.894;4.622;2022-12-18T03:24:26;-3.00;1.00
38131;DHT22;23947;51.894;4.622;2022-12-18T03:26:54;-3.00;1.00
38131;DHT22;23947;51.894;4.622;2022-12-18T03:29:42;-3.00;1.00
38131;DHT22;23947;51.894;4.622;2022-12-18T03:32:10;-3.00;1.00
38131;DHT22;23947;51.894;4.622;2022-12-18T03:34:40;-3.10;1.00
38131;DHT22;23947;51.894;4.622;2022-12-18T03:37:06;-3.10;1.00
38131;DHT22;23947;51.894;4.622;2022-12-18T03:39:34;-3.10;1.00
38131;DHT22;23947;51.894;4.622;2022-12-18T03:42:17;-3.20;1.00
38131;DHT22;23947;51.894;4.622;2022-12-18T03:50:56;-3.30;1.00
38131;DHT22;23947;51.894;4.622;2022-12-18T03:53:48;-3.20;1.00
38131;DHT22;23947;51.894;4.622;2022-12-18T03:56:18;-3.20;1.00
38131;DHT22;23947;51.894;4.622;2022-12-18T03:58:50;-3.30;1.00
38131;DHT22;23947;51.894;4.622;2022-12-18T04:01:22;-3.30;1.00
38131;DHT22;23947;51.894;4.622;2022-12-18T04:03:49;-3.30;1.00
38131;DHT22;23947;51.894;4.622;2022-12-18T04:06:17;-3.30;1.00
38131;DHT22;23947;51.894;4.622;2022-12-18T04:08:43;-3.30;1.00
38131;DHT22;23947;51.894;4.622;2022-12-18T04:11:09;-3.40;1.00
38131;DHT22;23947;51.894;4.622;2022-12-18T04:13:37;-3.30;1.00
38131;DHT22;23947;51.894;4.622;2022-12-18T04:16:03;-3.40;1.00
38131;DHT22;23947;51.894;4.622;2022-12-18T04:18:29;-3.40;1.00
38131;DHT22;23947;51.894;4.622;2022-12-18T04:20:55;-3.40;1.00
38131;DHT22;23947;51.894;4.622;2022-12-18T04:23:22;-3.40;1.00
38131;DHT22;23947;51.894;4.622;2022-12-18T04:25:47;-3.40;1.00
38131;DHT22;23947;51.894;4.622;2022-12-18T04:28:16;-3.40;1.00
38131;DHT22;23947;51.894;4.622;2022-12-18T04:30:42;-3.40;1.00
38131;DHT22;23947;51.894;4.622;2022-12-18T04:33:11;-3.50;1.00
38131;DHT22;23947;51.894;4.622;2022-12-18T04:35:38;-3.50;1.00
38131;DHT22;23947;51.894;4.622;2022-12-18T04:38:06;-3.60;1.00
38131;DHT22;23947;51.894;4.622;2022-12-18T04:40:37;-3.60;1.00
38131;DHT22;23947;51.894;4.622;2022-12-18T04:43:03;-3.60;1.00
38131;DHT22;23947;51.894;4.622;2022-12-18T04:45:30;-3.60;1.00
38131;DHT22;23947;51.894;4.622;2022-12-18T04:47:58;-3.70;1.00
38131;DHT22;23947;51.894;4.622;2022-12-18T04:50:26;-3.70;1.00
38131;DHT22;23947;51.894;4.622;2022-12-18T04:52:52;-3.60;1.00
38131;DHT22;23947;51.894;4.622;2022-12-18T04:55:21;-3.60;1.00
38131;DHT22;23947;51.894;4.622;2022-12-18T04:57:47;-3.60;1.00
38131;DHT22;23947;51.894;4.622;2022-12-18T05:00:13;-3.60;1.00
38131;DHT22;23947;51.894;4.622;2022-12-18T05:02:39;-3.60;1.00
38131;DHT22;23947;51.894;4.622;2022-12-18T05:05:05;-3.60;1.00
38131;DHT22;23947;51.894;4.622;2022-12-18T05:07:31;-3.70;1.00
38131;DHT22;23947;51.894;4.622;2022-12-18T05:09:57;-3.80;1.00
38131;DHT22;23947;51.894;4.622;2022-12-18T05:12:24;-3.70;1.00
38131;DHT22;23947;51.894;4.622;2022-12-18T05:14:51;-3.80;1.00
38131;DHT22;23947;51.894;4.622;2022-12-18T05:17:16;-3.80;1.00
38131;DHT22;23947;51.894;4.622;2022-12-18T05:19:42;-3.80;1.00
38131;DHT22;23947;51.894;4.622;2022-12-18T05:22:10;-3.80;1.00
38131;DHT22;23947;51.894;4.622;2022-12-18T05:24:37;-3.80;1.00
38131;DHT22;23947;51.894;4.622;2022-12-18T05:27:03;-3.80;1.00
38131;DHT22;23947;51.894;4.622;2022-12-18T05:29:28;-3.80;1.00
38131;DHT22;23947;51.894;4.622;2022-12-18T05:31:54;-3.80;1.00
38131;DHT22;23947;51.894;4.622;2022-12-18T05:34:20;-3.70;1.00
38131;DHT22;23947;51.894;4.622;2022-12-18T05:36:46;-3.80;1.00
38131;DHT22;23947;51.894;4.622;2022-12-18T05:39:15;-3.80;1.00
38131;DHT22;23947;51.894;4.622;2022-12-18T05:41:41;-3.80;1.00
38131;DHT22;23947;51.894;4.622;2022-12-18T05:44:07;-3.80;1.00
38131;DHT22;23947;51.894;4.622;2022-12-18T05:46:32;-3.80;1.00
38131;DHT22;23947;51.894;4.622;2022-12-18T05:49:01;-3.70;1.00
38131;DHT22;23947;51.894;4.622;2022-12-18T05:51:27;-3.70;1.00
38131;DHT22;23947;51.894;4.622;2022-12-18T05:53:53;-3.70;1.00
38131;DHT22;23947;51.894;4.622;2022-12-18T05:56:21;-3.70;1.00
38131;DHT22;23947;51.894;4.622;2022-12-18T05:58:50;-3.70;1.00
38131;DHT22;23947;51.894;4.622;2022-12-18T06:01:17;-3.70;1.00
38131;DHT22;23947;51.894;4.622;2022-12-18T06:03:44;-3.70;1.00
38131;DHT22;23947;51.894;4.622;2022-12-18T06:08:39;-3.70;1.00
38131;DHT22;23947;51.894;4.622;2022-12-18T06:11:05;-3.70;1.00
38131;DHT22;23947;51.894;4.622;2022-12-18T06:13:31;-3.70;1.00
38131;DHT22;23947;51.894;4.622;2022-12-18T06:15:56;-3.70;1.00
38131;DHT22;23947;51.894;4.622;2022-12-18T06:18:23;-3.80;1.00
38131;DHT22;23947;51.894;4.622;2022-12-18T06:20:56;-3.80;1.00
38131;DHT22;23947;51.894;4.622;2022-12-18T06:23:22;-3.80;1.00
38131;DHT22;23947;51.894;4.622;2022-12-18T06:25:48;-3.80;1.00
38131;DHT22;23947;51.894;4.622;2022-12-18T06:28:14;-3.80;1.00
38131;DHT22;23947;51.894;4.622;2022-12-18T06:30:43;-3.80;1.00
38131;DHT22;23947;51.894;4.622;2022-12-18T06:33:09;-3.80;1.00
38131;DHT22;23947;51.894;4.622;2022-12-18T06:35:34;-3.80;1.00
38131;DHT22;23947;51.894;4.622;2022-12-18T06:38:01;-3.90;1.00
38131;DHT22;23947;51.894;4.622;2022-12-18T06:40:27;-3.80;1.00
38131;DHT22;23947;51.894;4.622;2022-12-18T06:42:53;-3.80;1.00
38131;DHT22;23947;51.894;4.622;2022-12-18T06:45:18;-3.90;1.00
38131;DHT22;23947;51.894;4.622;2022-12-18T06:47:44;-3.90;1.00
38131;DHT22;23947;51.894;4.622;2022-12-18T06:50:10;-3.90;1.00
38131;DHT22;23947;51.894;4.622;2022-12-18T06:52:35;-3.90;1.00
38131;DHT22;23947;51.894;4.622;2022-12-18T06:55:02;-3.90;1.00
38131;DHT22;23947;51.894;4.622;2022-12-18T06:57:28;-3.90;1.00
38131;DHT22;23947;51.894;4.622;2022-12-18T06:59:54;-4.00;1.00
38131;DHT22;23947;51.894;4.622;2022-12-18T07:02:19;-3.90;1.00
38131;DHT22;23947;51.894;4.622;2022-12-18T07:04:45;-3.90;1.00
38131;DHT22;23947;51.894;4.622;2022-12-18T07:07:11;-3.90;1.00
38131;DHT22;23947;51.894;4.622;2022-12-18T07:09:36;-4.00;1.00
38131;DHT22;23947;51.894;4.622;2022-12-18T07:12:02;-4.00;1.00
38131;DHT22;23947;51.894;4.622;2022-12-18T07:14:28;-4.00;1.00
38131;DHT22;23947;51.894;4.622;2022-12-18T07:16:53;-4.10;1.00
38131;DHT22;23947;51.894;4.622;2022-12-18T07:19:19;-4.10;1.00
38131;DHT22;23947;51.894;4.622;2022-12-18T07:21:45;-4.10;1.00
38131;DHT22;23947;51.894;4.622;2022-12-18T07:24:11;-4.10;1.00
38131;DHT22;23947;51.894;4.622;2022-12-18T07:26:37;-4.10;1.00
38131;DHT22;23947;51.894;4.622;2022-12-18T07:29:02;-4.10;1.00
38131;DHT22;23947;51.894;4.622;2022-12-18T07:31:28;-4.10;1.00
38131;DHT22;23947;51.894;4.622;2022-12-18T07:33:53;-4.10;1.00
38131;DHT22;23947;51.894;4.622;2022-12-18T07:36:20;-4.10;1.00
38131;DHT22;23947;51.894;4.622;2022-12-18T07:38:49;-4.10;1.00
38131;DHT22;23947;51.894;4.622;2022-12-18T07:41:15;-4.10;1.00
38131;DHT22;23947;51.894;4.622;2022-12-18T07:43:41;-4.10;1.00
38131;DHT22;23947;51.894;4.622;2022-12-18T07:46:08;-4.10;1.00
38131;DHT22;23947;51.894;4.622;2022-12-18T07:48:34;-4.10;1.00
38131;DHT22;23947;51.894;4.622;2022-12-18T07:51:00;-4.10;1.00
38131;DHT22;23947;51.894;4.622;2022-12-18T07:53:26;-4.10;1.00
38131;DHT22;23947;51.894;4.622;2022-12-18T07:55:57;-4.10;1.00
38131;DHT22;23947;51.894;4.622;2022-12-18T07:58:43;-4.10;1.00
38131;DHT22;23947;51.894;4.622;2022-12-18T08:01:11;-4.10;1.00
38131;DHT22;23947;51.894;4.622;2022-12-18T08:03:38;-4.10;1.00
38131;DHT22;23947;51.894;4.622;2022-12-18T08:06:05;-4.10;1.00
38131;DHT22;23947;51.894;4.622;2022-12-18T08:08:32;-4.10;1.00
38131;DHT22;23947;51.894;4.622;2022-12-18T08:10:59;-4.00;1.00
38131;DHT22;23947;51.894;4.622;2022-12-18T08:13:25;-4.00;1.00
38131;DHT22;23947;51.894;4.622;2022-12-18T08:16:08;-4.00;1.00
38131;DHT22;23947;51.894;4.622;2022-12-18T08:18:36;-4.00;1.00
38131;DHT22;23947;51.894;4.622;2022-12-18T08:21:12;-4.00;1.00
38131;DHT22;23947;51.894;4.622;2022-12-18T08:23:38;-4.00;1.00
38131;DHT22;23947;51.894;4.622;2022-12-18T08:26:05;-4.00;1.00
38131;DHT22;23947;51.894;4.622;2022-12-18T08:28:30;-4.00;1.00
38131;DHT22;23947;51.894;4.622;2022-12-18T08:30:59;-3.90;1.00
38131;DHT22;23947;51.894;4.622;2022-12-18T08:33:25;-3.90;1.00
38131;DHT22;23947;51.894;4.622;2022-12-18T08:35:54;-3.90;1.00
38131;DHT22;23947;51.894;4.622;2022-12-18T08:38:22;-3.80;1.00
38131;DHT22;23947;51.894;4.622;2022-12-18T08:40:48;-3.80;1.00
38131;DHT22;23947;51.894;4.622;2022-12-18T08:43:16;-3.80;1.00
38131;DHT22;23947;51.894;4.622;2022-12-18T08:46:01;-3.80;1.00
38131;DHT22;23947;51.894;4.622;2022-12-18T08:48:47;-3.70;1.00
38131;DHT22;23947;51.894;4.622;2022-12-18T08:51:13;-3.70;1.00
38131;DHT22;23947;51.894;4.622;2022-12-18T08:53:42;-3.70;1.00
38131;DHT22;23947;51.894;4.622;2022-12-18T08:56:07;-3.70;1.00
38131;DHT22;23947;51.894;4.622;2022-12-18T08:58:40;-3.60;1.00
38131;DHT22;23947;51.894;4.622;2022-12-18T09:01:08;-3.60;1.00
38131;DHT22;23947;51.894;4.622;2022-12-18T09:03:35;-3.50;1.00
38131;DHT22;23947;51.894;4.622;2022-12-18T09:06:01;-3.50;1.00
38131;DHT22;23947;51.894;4.622;2022-12-18T09:11:31;-3.40;1.00
38131;DHT22;23947;51.894;4.622;2022-12-18T09:13:58;-3.40;1.00
38131;DHT22;23947;51.894;4.622;2022-12-18T09:16:27;-3.30;1.00
38131;DHT22;23947;51.894;4.622;2022-12-18T09:18:54;-3.30;1.00
38131;DHT22;23947;51.894;4.622;2022-12-18T09:21:25;-3.20;1.00
38131;DHT22;23947;51.894;4.622;2022-12-18T09:23:52;-3.20;1.00
38131;DHT22;23947;51.894;4.622;2022-12-18T09:26:19;-3.20;1.00
38131;DHT22;23947;51.894;4.622;2022-12-18T09:28:54;-3.20;1.00
38131;DHT22;23947;51.894;4.622;2022-12-18T09:31:33;-3.20;1.00
38131;DHT22;23947;51.894;4.622;2022-12-18T09:33:59;-3.20;1.00
38131;DHT22;23947;51.894;4.622;2022-12-18T09:36:25;-3.10;1.00
38131;DHT22;23947;51.894;4.622;2022-12-18T09:38:50;-3.00;1.00
38131;DHT22;23947;51.894;4.622;2022-12-18T09:43:51;-2.90;1.00
38131;DHT22;23947;51.894;4.622;2022-12-18T09:46:25;-2.90;1.00
38131;DHT22;23947;51.894;4.622;2022-12-18T09:48:54;-2.80;1.00
38131;DHT22;23947;51.894;4.622;2022-12-18T09:51:30;-2.80;1.00
38131;DHT22;23947;51.894;4.622;2022-12-18T09:54:05;-2.80;1.00
38131;DHT22;23947;51.894;4.622;2022-12-18T09:56:40;-2.80;1.00
38131;DHT22;23947;51.894;4.622;2022-12-18T09:59:24;-2.80;1.00
38131;DHT22;23947;51.894;4.622;2022-12-18T10:01:50;-2.70;1.00
38131;DHT22;23947;51.894;4.622;2022-12-18T10:04:16;-2.70;1.00
38131;DHT22;23947;51.894;4.622;2022-12-18T10:06:55;-2.60;1.00
38131;DHT22;23947;51.894;4.622;2022-12-18T10:09:38;-2.50;1.00
38131;DHT22;23947;51.894;4.622;2022-12-18T10:15:10;-2.40;1.00
38131;DHT22;23947;51.894;4.622;2022-12-18T10:20:37;-2.30;1.00
38131;DHT22;23947;51.894;4.622;2022-12-18T10:26:01;-2.20;1.00
38131;DHT22;23947;51.894;4.622;2022-12-18T10:28:47;-2.30;1.00
38131;DHT22;23947;51.894;4.622;2022-12-18T10:31:17;-2.30;1.00
38131;DHT22;23947;51.894;4.622;2022-12-18T10:33:43;-2.20;1.00
38131;DHT22;23947;51.894;4.622;2022-12-18T10:36:09;-2.20;1.00
38131;DHT22;23947;51.894;4.622;2022-12-18T10:38:35;-2.10;1.00
38131;DHT22;23947;51.894;4.622;2022-12-18T10:41:05;-2.00;1.00
38131;DHT22;23947;51.894;4.622;2022-12-18T10:43:38;-2.00;1.00
38131;DHT22;23947;51.894;4.622;2022-12-18T10:46:08;-1.90;1.00
38131;DHT22;23947;51.894;4.622;2022-12-18T10:48:57;-1.90;1.00
38131;DHT22;23947;51.894;4.622;2022-12-18T10:52:37;-1.80;1.00
38131;DHT22;23947;51.894;4.622;2022-12-18T10:54:58;-1.80;1.00
38131;DHT22;23947;51.894;4.622;2022-12-18T10:57:39;-1.80;1.00
38131;DHT22;23947;51.894;4.622;2022-12-18T11:00:30;-1.70;1.00
38131;DHT22;23947;51.894;4.622;2022-12-18T11:02:56;-1.70;1.00
38131;DHT22;23947;51.894;4.622;2022-12-18T11:05:34;-1.70;1.00
38131;DHT22;23947;51.894;4.622;2022-12-18T11:08:02;-1.70;1.00
38131;DHT22;23947;51.894;4.622;2022-12-18T11:10:36;-1.60;1.00
38131;DHT22;23947;51.894;4.622;2022-12-18T11:13:16;-1.60;1.00
38131;DHT22;23947;51.894;4.622;2022-12-18T11:15:46;-1.50;1.00
38131;DHT22;23947;51.894;4.622;2022-12-18T11:18:19;-1.50;1.00
38131;DHT22;23947;51.894;4.622;2022-12-18T11:20:51;-1.40;1.00
38131;DHT22;23947;51.894;4.622;2022-12-18T11:23:19;-1.40;1.00
38131;DHT22;23947;51.894;4.622;2022-12-18T11:26:01;-1.40;1.00
38131;DHT22;23947;51.894;4.622;2022-12-18T11:28:47;-1.30;1.00
38131;DHT22;23947;51.894;4.622;2022-12-18T11:31:28;-1.30;1.00
38131;DHT22;23947;51.894;4.622;2022-12-18T11:36:44;-1.30;1.00
38131;DHT22;23947;51.894;4.622;2022-12-18T11:39:20;-1.30;1.00
38131;DHT22;23947;51.894;4.622;2022-12-18T11:42:27;-1.20;1.00
38131;DHT22;23947;51.894;4.622;2022-12-18T11:44:51;-1.20;1.00
38131;DHT22;23947;51.894;4.622;2022-12-18T11:47:49;-1.20;1.00
38131;DHT22;23947;51.894;4.622;2022-12-18T11:50:17;-1.20;1.00
38131;DHT22;23947;51.894;4.622;2022-12-18T11:52:52;-1.10;1.00
38131;DHT22;23947;51.894;4.622;2022-12-18T12:00:56;-1.10;1.00
38131;DHT22;23947;51.894;4.622;2022-12-18T12:03:37;-1.10;1.00
38131;DHT22;23947;51.894;4.622;2022-12-18T12:08:41;-1.10;1.00
38131;DHT22;23947;51.894;4.622;2022-12-18T12:17:11;-1.00;1.00
38131;DHT22;23947;51.894;4.622;2022-12-18T12:20:14;-1.00;1.00
38131;DHT22;23947;51.894;4.622;2022-12-18T12:22:47;-0.90;1.00
38131;DHT22;23947;51.894;4.622;2022-12-18T12:31:19;-0.90;1.00
38131;DHT22;23947;51.894;4.622;2022-12-18T12:34:15;-0.90;1.00
38131;DHT22;23947;51.894;4.622;2022-12-18T12:37:10;-0.90;1.00
38131;DHT22;23947;51.894;4.622;2022-12-18T12:39:42;-0.90;1.00
38131;DHT22;23947;51.894;4.622;2022-12-18T12:42:26;-0.90;1.00
38131;DHT22;23947;51.894;4.622;2022-12-18T12:45:18;-0.90;1.00
38131;DHT22;23947;51.894;4.622;2022-12-18T12:47:59;-0.80;1.00
38131;DHT22;23947;51.894;4.622;2022-12-18T12:50:27;-0.80;1.00
38131;DHT22;23947;51.894;4.622;2022-12-18T12:53:07;-0.80;1.00
38131;DHT22;23947;51.894;4.622;2022-12-18T12:55:33;-0.80;1.00
38131;DHT22;23947;51.894;4.622;2022-12-18T12:58:13;-0.80;1.00
38131;DHT22;23947;51.894;4.622;2022-12-18T13:00:52;-0.70;1.00
38131;DHT22;23947;51.894;4.622;2022-12-18T13:03:35;-0.70;1.00
38131;DHT22;23947;51.894;4.622;2022-12-18T13:06:16;-0.60;1.00
38131;DHT22;23947;51.894;4.622;2022-12-18T13:08:56;-0.60;1.00
38131;DHT22;23947;51.894;4.622;2022-12-18T13:11:35;-0.50;1.00
38131;DHT22;23947;51.894;4.622;2022-12-18T13:14:39;-0.50;1.00
38131;DHT22;23947;51.894;4.622;2022-12-18T13:17:29;-0.40;1.00
38131;DHT22;23947;51.894;4.622;2022-12-18T13:20:07;-0.40;1.00
38131;DHT22;23947;51.894;4.622;2022-12-18T13:22:53;-0.30;1.00
38131;DHT22;23947;51.894;4.622;2022-12-18T13:28:05;-0.20;1.00
38131;DHT22;23947;51.894;4.622;2022-12-18T13:40:54;-0.20;1.00
38131;DHT22;23947;51.894;4.622;2022-12-18T13:48:36;-0.20;1.00
38131;DHT22;23947;51.894;4.622;2022-12-18T13:51:41;-0.20;1.00
38131;DHT22;23947;51.894;4.622;2022-12-18T13:56:48;-0.20;1.00
38131;DHT22;23947;51.894;4.622;2022-12-18T13:59:20;-0.20;1.00
38131;DHT22;23947;51.894;4.622;2022-12-18T14:04:25;-0.20;1.00
38131;DHT22;23947;51.894;4.622;2022-12-18T14:06:57;-0.20;1.00
38131;DHT22;23947;51.894;4.622;2022-12-18T14:09:29;-0.10;1.00
38131;DHT22;23947;51.894;4.622;2022-12-18T14:11:56;-0.10;1.00
38131;DHT22;23947;51.894;4.622;2022-12-18T14:14:46;-0.10;1.00
38131;DHT22;23947;51.894;4.622;2022-12-18T14:17:13;-0.10;1.00
38131;DHT22;23947;51.894;4.622;2022-12-18T14:19:48;-0.10;1.00
38131;DHT22;23947;51.894;4.622;2022-12-18T14:22:21;-0.10;1.00
38131;DHT22;23947;51.894;4.622;2022-12-18T14:24:58;-0.10;1.00
38131;DHT22;23947;51.894;4.622;2022-12-18T14:27:30;-0.10;1.00
38131;DHT22;23947;51.894;4.622;2022-12-18T14:29:56;-0.20;1.00
38131;DHT22;23947;51.894;4.622;2022-12-18T14:32:21;-0.10;1.00
38131;DHT22;23947;51.894;4.622;2022-12-18T14:34:52;-0.20;1.00
38131;DHT22;23947;51.894;4.622;2022-12-18T14:37:26;-0.10;1.00
38131;DHT22;23947;51.894;4.622;2022-12-18T14:39:58;-0.10;1.00
38131;DHT22;23947;51.894;4.622;2022-12-18T14:42:26;-0.10;1.00
38131;DHT22;23947;51.894;4.622;2022-12-18T14:47:58;-0.10;1.00
38131;DHT22;23947;51.894;4.622;2022-12-18T14:50:24;-0.10;1.00
38131;DHT22;23947;51.894;4.622;2022-12-18T14:52:56;-0.10;1.00
38131;DHT22;23947;51.894;4.622;2022-12-18T14:55:22;-0.10;1.00
38131;DHT22;23947;51.894;4.622;2022-12-18T14:57:58;-0.10;1.00
38131;DHT22;23947;51.894;4.622;2022-12-18T15:00:25;-0.10;1.00
38131;DHT22;23947;51.894;4.622;2022-12-18T15:02:55;0.00;1.00
38131;DHT22;23947;51.894;4.622;2022-12-18T15:05:29;-0.10;1.00
38131;DHT22;23947;51.894;4.622;2022-12-18T15:07:58;-0.10;1.00
38131;DHT22;23947;51.894;4.622;2022-12-18T15:10:29;-0.10;1.00
38131;DHT22;23947;51.894;4.622;2022-12-18T15:23:26;-0.10;1.00
38131;DHT22;23947;51.894;4.622;2022-12-18T15:26:10;-0.10;1.00
38131;DHT22;23947;51.894;4.622;2022-12-18T15:33:34;-0.10;1.00
38131;DHT22;23947;51.894;4.622;2022-12-18T15:36:03;-0.10;1.00
38131;DHT22;23947;51.894;4.622;2022-12-18T15:38:29;-0.10;1.00
38131;DHT22;23947;51.894;4.622;2022-12-18T15:40:55;0.00;1.00
38131;DHT22;23947;51.894;4.622;2022-12-18T15:43:22;0.00;1.00
38131;DHT22;23947;51.894;4.622;2022-12-18T15:46:01;0.00;1.00
38131;DHT22;23947;51.894;4.622;2022-12-18T15:48:26;0.00;1.00
38131;DHT22;23947;51.894;4.622;2022-12-18T15:50:54;0.10;1.00
38131;DHT22;23947;51.894;4.622;2022-12-18T15:53:22;0.00;1.00
38131;DHT22;23947;51.894;4.622;2022-12-18T15:55:49;0.10;1.00
38131;DHT22;23947;51.894;4.622;2022-12-18T15:58:33;0.10;1.00
38131;DHT22;23947;51.894;4.622;2022-12-18T16:00:59;0.10;1.00
38131;DHT22;23947;51.894;4.622;2022-12-18T16:03:25;0.20;1.00
38131;DHT22;23947;51.894;4.622;2022-12-18T16:05:51;0.20;1.00
38131;DHT22;23947;51.894;4.622;2022-12-18T16:08:16;0.30;1.00
38131;DHT22;23947;51.894;4.622;2022-12-18T16:10:42;0.40;1.00
38131;DHT22;23947;51.894;4.622;2022-12-18T16:13:10;0.30;1.00
38131;DHT22;23947;51.894;4.622;2022-12-18T16:15:36;0.30;1.00
38131;DHT22;23947;51.894;4.622;2022-12-18T16:18:02;0.40;1.00
38131;DHT22;23947;51.894;4.622;2022-12-18T16:20:28;0.40;1.00
38131;DHT22;23947;51.894;4.622;2022-12-18T16:22:53;0.40;1.00
38131;DHT22;23947;51.894;4.622;2022-12-18T16:25:22;0.40;1.00
38131;DHT22;23947;51.894;4.622;2022-12-18T16:27:48;0.40;1.00
38131;DHT22;23947;51.894;4.622;2022-12-18T16:30:16;0.40;1.00
38131;DHT22;23947;51.894;4.622;2022-12-18T16:32:42;0.40;1.00
38131;DHT22;23947;51.894;4.622;2022-12-18T16:35:10;0.50;1.00
38131;DHT22;23947;51.894;4.622;2022-12-18T16:37:36;0.40;1.00
38131;DHT22;23947;51.894;4.622;2022-12-18T16:40:02;0.50;1.00
38131;DHT22;23947;51.894;4.622;2022-12-18T16:42:28;0.50;1.00
38131;DHT22;23947;51.894;4.622;2022-12-18T16:44:53;0.40;1.00
38131;DHT22;23947;51.894;4.622;2022-12-18T16:47:19;0.40;1.00
38131;DHT22;23947;51.894;4.622;2022-12-18T16:49:45;0.40;1.00
38131;DHT22;23947;51.894;4.622;2022-12-18T16:52:10;0.50;1.00
38131;DHT22;23947;51.894;4.622;2022-12-18T16:54:36;0.50;1.00
38131;DHT22;23947;51.894;4.622;2022-12-18T16:57:03;0.50;1.00
38131;DHT22;23947;51.894;4.622;2022-12-18T16:59:29;0.50;1.00
38131;DHT22;23947;51.894;4.622;2022-12-18T17:01:55;0.50;1.00
38131;DHT22;23947;51.894;4.622;2022-12-18T17:04:21;0.40;1.00
38131;DHT22;23947;51.894;4.622;2022-12-18T17:06:47;0.50;1.00
38131;DHT22;23947;51.894;4.622;2022-12-18T17:09:19;0.50;1.00
38131;DHT22;23947;51.894;4.622;2022-12-18T17:11:51;0.50;1.00
38131;DHT22;23947;51.894;4.622;2022-12-18T17:14:20;0.50;1.00
38131;DHT22;23947;51.894;4.622;2022-12-18T17:16:46;0.50;1.00
38131;DHT22;23947;51.894;4.622;2022-12-18T17:19:12;0.50;1.00
38131;DHT22;23947;51.894;4.622;2022-12-18T17:21:39;0.50;1.00
38131;DHT22;23947;51.894;4.622;2022-12-18T17:24:05;0.40;1.00
38131;DHT22;23947;51.894;4.622;2022-12-18T17:26:31;0.50;1.00
38131;DHT22;23947;51.894;4.622;2022-12-18T17:28:57;0.50;1.00
38131;DHT22;23947;51.894;4.622;2022-12-18T17:31:24;0.50;1.00
38131;DHT22;23947;51.894;4.622;2022-12-18T17:33:50;0.50;1.00
38131;DHT22;23947;51.894;4.622;2022-12-18T17:36:17;0.50;1.00
38131;DHT22;23947;51.894;4.622;2022-12-18T17:38:48;0.50;1.00
38131;DHT22;23947;51.894;4.622;2022-12-18T17:41:14;0.60;1.00
38131;DHT22;23947;51.894;4.622;2022-12-18T17:43:39;0.60;1.00
38131;DHT22;23947;51.894;4.622;2022-12-18T17:46:12;0.60;1.00
38131;DHT22;23947;51.894;4.622;2022-12-18T17:48:39;0.60;1.00
38131;DHT22;23947;51.894;4.622;2022-12-18T17:51:06;0.60;1.00
38131;DHT22;23947;51.894;4.622;2022-12-18T17:53:32;0.60;1.00
38131;DHT22;23947;51.894;4.622;2022-12-18T17:55:59;0.60;1.00
38131;DHT22;23947;51.894;4.622;2022-12-18T17:58:26;0.60;1.00